sensor_id;sensor_type;location;lat;lon;timestamp;temperature;humidity
19258;DHT22;9763;48.780;9.212;2024-03-29T00:01:42;11.40;51.10
19258;DHT22;9763;48.780;9.212;2024-03-29T00:05:05;11.50;51.20
19258;DHT22;9763;48.780;9.212;2024-03-29T00:08:28;11.50;51.30
19258;DHT22;9763;48.780;9.212;2024-03-29T00:11:50;11.50;51.20
19258;DHT22;9763;48.780;9.212;2024-03-29T00:15:11;11.50;51.30
19258;DHT22;9763;48.780;9.212;2024-03-29T00:18:33;11.50;51.20
19258;DHT22;9763;48.780;9.212;2024-03-29T00:21:55;11.50;51.30
19258;DHT22;9763;48.780;9.212;2024-03-29T00:25:18;11.50;51.30
19258;DHT22;9763;48.780;9.212;2024-03-29T00:28:40;11.50;51.20
19258;DHT22;9763;48.780;9.212;2024-03-29T00:32:02;11.50;51.20
19258;DHT22;9763;48.780;9.212;2024-03-29T00:35:24;11.50;51.20
19258;DHT22;9763;48.780;9.212;2024-03-29T00:38:46;11.50;51.20
19258;DHT22;9763;48.780;9.212;2024-03-29T00:42:09;11.50;51.20
19258;DHT22;9763;48.780;9.212;2024-03-29T00:45:31;11.50;51.30
19258;DHT22;9763;48.780;9.212;2024-03-29T00:48:52;11.60;51.40
19258;DHT22;9763;48.780;9.212;2024-03-29T00:52:14;11.50;51.30
19258;DHT22;9763;48.780;9.212;2024-03-29T00:55:36;11.50;51.40
19258;DHT22;9763;48.780;9.212;2024-03-29T00:58:59;11.50;51.40
19258;DHT22;9763;48.780;9.212;2024-03-29T01:02:21;11.50;51.30
19258;DHT22;9763;48.780;9.212;2024-03-29T01:05:43;11.50;51.40
19258;DHT22;9763;48.780;9.212;2024-03-29T01:09:05;11.60;51.50
19258;DHT22;9763;48.780;9.212;2024-03-29T01:12:27;11.60;51.50
19258;DHT22;9763;48.780;9.212;2024-03-29T01:15:50;11.60;51.50
19258;DHT22;9763;48.780;9.212;2024-03-29T01:19:12;11.60;51.60
19258;DHT22;9763;48.780;9.212;2024-03-29T01:22:34;11.60;51.60
19258;DHT22;9763;48.780;9.212;2024-03-29T01:25:56;11.60;51.60
19258;DHT22;9763;48.780;9.212;2024-03-29T01:29:17;11.60;51.60
19258;DHT22;9763;48.780;9.212;2024-03-29T01:32:40;11.60;51.60
19258;DHT22;9763;48.780;9.212;2024-03-29T01:36:03;11.60;51.50
19258;DHT22;9763;48.780;9.212;2024-03-29T01:39:25;11.60;51.60
19258;DHT22;9763;48.780;9.212;2024-03-29T01:42:47;11.60;51.40
19258;DHT22;9763;48.780;9.212;2024-03-29T01:46:09;11.60;51.40
19258;DHT22;9763;48.780;9.212;2024-03-29T01:49:34;11.60;51.50
19258;DHT22;9763;48.780;9.212;2024-03-29T01:52:57;11.60;51.30
19258;DHT22;9763;48.780;9.212;2024-03-29T01:56:21;11.60;51.30
19258;DHT22;9763;48.780;9.212;2024-03-29T01:59:46;11.60;51.40
19258;DHT22;9763;48.780;9.212;2024-03-29T02:03:09;11.60;51.40
19258;DHT22;9763;48.780;9.212;2024-03-29T02:06:36;11.70;51.40
19258;DHT22;9763;48.780;9.212;2024-03-29T02:09:59;11.70;51.40
19258;DHT22;9763;48.780;9.212;2024-03-29T02:13:23;11.70;51.40
19258;DHT22;9763;48.780;9.212;2024-03-29T02:16:46;11.70;51.30
19258;DHT22;9763;48.780;9.212;2024-03-29T02:20:10;11.80;51.40
19258;DHT22;9763;48.780;9.212;2024-03-29T02:23:36;11.80;51.40
19258;DHT22;9763;48.780;9.212;2024-03-29T02:27:04;11.80;51.40
19258;DHT22;9763;48.780;9.212;2024-03-29T02:30:27;11.80;51.30
19258;DHT22;9763;48.780;9.212;2024-03-29T02:33:52;11.90;51.30
19258;DHT22;9763;48.780;9.212;2024-03-29T02:37:16;11.90;51.30
19258;DHT22;9763;48.780;9.212;2024-03-29T02:40:40;11.90;51.20
19258;DHT22;9763;48.780;9.212;2024-03-29T02:44:04;12.00;51.20
19258;DHT22;9763;48.780;9.212;2024-03-29T02:47:27;12.00;51.20
19258;DHT22;9763;48.780;9.212;2024-03-29T02:50:50;12.00;51.10
19258;DHT22;9763;48.780;9.212;2024-03-29T02:54:12;12.00;51.10
19258;DHT22;9763;48.780;9.212;2024-03-29T02:57:34;12.00;51.10
19258;DHT22;9763;48.780;9.212;2024-03-29T03:01:05;12.00;51.10
19258;DHT22;9763;48.780;9.212;2024-03-29T03:04:29;12.00;51.00
19258;DHT22;9763;48.780;9.212;2024-03-29T03:07:52;12.00;51.00
19258;DHT22;9763;48.780;9.212;2024-03-29T03:11:32;12.00;51.10
19258;DHT22;9763;48.780;9.212;2024-03-29T03:14:55;12.00;51.00
19258;DHT22;9763;48.780;9.212;2024-03-29T03:18:19;12.00;51.00
19258;DHT22;9763;48.780;9.212;2024-03-29T03:21:43;12.00;51.00
19258;DHT22;9763;48.780;9.212;2024-03-29T03:25:06;12.00;51.10
19258;DHT22;9763;48.780;9.212;2024-03-29T03:28:28;12.10;51.10
19258;DHT22;9763;48.780;9.212;2024-03-29T03:31:51;12.10;51.10
19258;DHT22;9763;48.780;9.212;2024-03-29T03:35:14;12.10;51.10
19258;DHT22;9763;48.780;9.212;2024-03-29T03:38:37;12.20;51.10
19258;DHT22;9763;48.780;9.212;2024-03-29T03:42:00;12.20;51.00
19258;DHT22;9763;48.780;9.212;2024-03-29T03:45:23;12.20;51.00
19258;DHT22;9763;48.780;9.212;2024-03-29T03:48:46;12.30;51.10
19258;DHT22;9763;48.780;9.212;2024-03-29T03:52:10;12.30;51.00
19258;DHT22;9763;48.780;9.212;2024-03-29T03:55:35;12.40;51.00
19258;DHT22;9763;48.780;9.212;2024-03-29T03:58:58;12.40;51.00
19258;DHT22;9763;48.780;9.212;2024-03-29T04:02:21;12.40;51.00
19258;DHT22;9763;48.780;9.212;2024-03-29T04:05:43;12.70;51.10
19258;DHT22;9763;48.780;9.212;2024-03-29T04:09:07;12.50;51.00
19258;DHT22;9763;48.780;9.212;2024-03-29T04:12:31;12.40;50.90
19258;DHT22;9763;48.780;9.212;2024-03-29T04:15:53;12.40;50.90
19258;DHT22;9763;48.780;9.212;2024-03-29T04:19:15;12.30;50.80
19258;DHT22;9763;48.780;9.212;2024-03-29T04:22:38;12.30;50.90
19258;DHT22;9763;48.780;9.212;2024-03-29T04:26:02;12.30;50.90
19258;DHT22;9763;48.780;9.212;2024-03-29T04:29:25;12.20;51.00
19258;DHT22;9763;48.780;9.212;2024-03-29T04:32:48;12.20;51.00
19258;DHT22;9763;48.780;9.212;2024-03-29T04:36:09;12.20;51.00
19258;DHT22;9763;48.780;9.212;2024-03-29T04:39:32;12.20;51.00
19258;DHT22;9763;48.780;9.212;2024-03-29T04:42:56;12.20;51.00
19258;DHT22;9763;48.780;9.212;2024-03-29T04:46:19;12.20;50.90
19258;DHT22;9763;48.780;9.212;2024-03-29T04:49:42;12.20;50.90
19258;DHT22;9763;48.780;9.212;2024-03-29T04:53:05;12.20;50.90
19258;DHT22;9763;48.780;9.212;2024-03-29T04:56:28;12.20;51.00
19258;DHT22;9763;48.780;9.212;2024-03-29T04:59:52;12.30;51.00
19258;DHT22;9763;48.780;9.212;2024-03-29T05:03:17;12.30;50.90
19258;DHT22;9763;48.780;9.212;2024-03-29T05:06:40;12.30;51.10
19258;DHT22;9763;48.780;9.212;2024-03-29T05:10:03;12.40;51.20
19258;DHT22;9763;48.780;9.212;2024-03-29T05:13:28;12.40;51.20
19258;DHT22;9763;48.780;9.212;2024-03-29T05:16:53;12.40;51.10
19258;DHT22;9763;48.780;9.212;2024-03-29T05:20:16;12.40;51.00
19258;DHT22;9763;48.780;9.212;2024-03-29T05:23:39;12.40;51.00
19258;DHT22;9763;48.780;9.212;2024-03-29T05:27:02;12.40;50.80
19258;DHT22;9763;48.780;9.212;2024-03-29T05:30:25;12.40;50.80
19258;DHT22;9763;48.780;9.212;2024-03-29T05:33:51;12.40;50.70
19258;DHT22;9763;48.780;9.212;2024-03-29T05:37:14;12.40;50.60
19258;DHT22;9763;48.780;9.212;2024-03-29T05:40:38;12.50;50.60
19258;DHT22;9763;48.780;9.212;2024-03-29T05:44:01;12.50;50.50
19258;DHT22;9763;48.780;9.212;2024-03-29T05:47:26;12.60;50.60
19258;DHT22;9763;48.780;9.212;2024-03-29T05:50:50;12.60;50.50
19258;DHT22;9763;48.780;9.212;2024-03-29T05:54:13;12.70;50.50
19258;DHT22;9763;48.780;9.212;2024-03-29T05:57:36;12.70;50.50
19258;DHT22;9763;48.780;9.212;2024-03-29T06:01:02;12.80;50.70
19258;DHT22;9763;48.780;9.212;2024-03-29T06:04:25;12.80;50.80
19258;DHT22;9763;48.780;9.212;2024-03-29T06:07:54;12.90;50.80
19258;DHT22;9763;48.780;9.212;2024-03-29T06:11:17;12.80;50.60
19258;DHT22;9763;48.780;9.212;2024-03-29T06:14:40;12.90;50.60
19258;DHT22;9763;48.780;9.212;2024-03-29T06:18:19;12.90;50.60
19258;DHT22;9763;48.780;9.212;2024-03-29T06:21:42;12.90;50.60
19258;DHT22;9763;48.780;9.212;2024-03-29T06:25:07;13.00;50.60
19258;DHT22;9763;48.780;9.212;2024-03-29T06:28:30;13.00;50.60
19258;DHT22;9763;48.780;9.212;2024-03-29T06:31:53;13.10;50.60
19258;DHT22;9763;48.780;9.212;2024-03-29T06:35:16;13.10;50.40
19258;DHT22;9763;48.780;9.212;2024-03-29T06:38:41;13.10;50.40
19258;DHT22;9763;48.780;9.212;2024-03-29T06:42:05;13.10;50.60
19258;DHT22;9763;48.780;9.212;2024-03-29T06:45:29;13.10;50.70
19258;DHT22;9763;48.780;9.212;2024-03-29T06:48:52;13.10;50.70
19258;DHT22;9763;48.780;9.212;2024-03-29T06:52:14;13.20;51.00
19258;DHT22;9763;48.780;9.212;2024-03-29T06:55:37;13.20;50.90
19258;DHT22;9763;48.780;9.212;2024-03-29T06:59:01;13.30;51.20
19258;DHT22;9763;48.780;9.212;2024-03-29T07:02:24;13.40;51.10
19258;DHT22;9763;48.780;9.212;2024-03-29T07:05:46;13.50;51.30
19258;DHT22;9763;48.780;9.212;2024-03-29T07:09:09;13.50;51.40
19258;DHT22;9763;48.780;9.212;2024-03-29T07:12:32;13.60;51.30
19258;DHT22;9763;48.780;9.212;2024-03-29T07:15:56;13.70;51.40
19258;DHT22;9763;48.780;9.212;2024-03-29T07:19:19;13.80;51.40
19258;DHT22;9763;48.780;9.212;2024-03-29T07:22:42;13.80;51.20
19258;DHT22;9763;48.780;9.212;2024-03-29T07:26:06;13.80;51.10
19258;DHT22;9763;48.780;9.212;2024-03-29T07:29:29;13.90;51.10
19258;DHT22;9763;48.780;9.212;2024-03-29T07:32:58;13.90;51.00
19258;DHT22;9763;48.780;9.212;2024-03-29T07:36:27;13.90;51.00
19258;DHT22;9763;48.780;9.212;2024-03-29T07:39:56;13.90;51.10
19258;DHT22;9763;48.780;9.212;2024-03-29T07:43:22;13.80;51.40
19258;DHT22;9763;48.780;9.212;2024-03-29T07:46:49;13.70;53.00
19258;DHT22;9763;48.780;9.212;2024-03-29T07:50:16;13.60;54.50
19258;DHT22;9763;48.780;9.212;2024-03-29T07:53:39;13.50;56.00
19258;DHT22;9763;48.780;9.212;2024-03-29T07:57:02;13.30;57.10
19258;DHT22;9763;48.780;9.212;2024-03-29T08:00:34;13.20;58.10
19258;DHT22;9763;48.780;9.212;2024-03-29T08:03:58;13.00;58.80
19258;DHT22;9763;48.780;9.212;2024-03-29T08:07:25;12.90;59.50
19258;DHT22;9763;48.780;9.212;2024-03-29T08:10:47;12.70;60.10
19258;DHT22;9763;48.780;9.212;2024-03-29T08:14:10;12.60;61.20
19258;DHT22;9763;48.780;9.212;2024-03-29T08:17:33;12.60;62.20
19258;DHT22;9763;48.780;9.212;2024-03-29T08:20:55;12.50;62.70
19258;DHT22;9763;48.780;9.212;2024-03-29T08:24:20;12.50;63.70
19258;DHT22;9763;48.780;9.212;2024-03-29T08:27:42;12.50;64.30
19258;DHT22;9763;48.780;9.212;2024-03-29T08:31:06;12.50;65.10
19258;DHT22;9763;48.780;9.212;2024-03-29T08:34:30;12.50;65.90
19258;DHT22;9763;48.780;9.212;2024-03-29T08:37:55;12.50;66.50
19258;DHT22;9763;48.780;9.212;2024-03-29T08:41:19;12.50;67.20
19258;DHT22;9763;48.780;9.212;2024-03-29T08:44:42;12.60;68.50
19258;DHT22;9763;48.780;9.212;2024-03-29T08:48:05;12.60;69.50
19258;DHT22;9763;48.780;9.212;2024-03-29T08:51:28;12.70;70.50
19258;DHT22;9763;48.780;9.212;2024-03-29T08:54:51;12.70;71.10
19258;DHT22;9763;48.780;9.212;2024-03-29T08:58:15;12.80;71.70
19258;DHT22;9763;48.780;9.212;2024-03-29T09:01:42;12.80;71.50
19258;DHT22;9763;48.780;9.212;2024-03-29T09:05:10;12.80;71.70
19258;DHT22;9763;48.780;9.212;2024-03-29T09:08:33;12.80;71.70
19258;DHT22;9763;48.780;9.212;2024-03-29T09:11:55;12.80;72.00
19258;DHT22;9763;48.780;9.212;2024-03-29T09:15:19;12.80;72.10
19258;DHT22;9763;48.780;9.212;2024-03-29T09:18:42;12.80;72.50
19258;DHT22;9763;48.780;9.212;2024-03-29T09:22:05;12.80;72.90
19258;DHT22;9763;48.780;9.212;2024-03-29T09:25:28;12.80;73.30
19258;DHT22;9763;48.780;9.212;2024-03-29T09:28:51;12.80;73.70
19258;DHT22;9763;48.780;9.212;2024-03-29T09:32:15;12.90;73.70
19258;DHT22;9763;48.780;9.212;2024-03-29T09:35:40;12.90;73.60
19258;DHT22;9763;48.780;9.212;2024-03-29T09:39:04;12.90;73.80
19258;DHT22;9763;48.780;9.212;2024-03-29T09:42:27;12.90;74.00
19258;DHT22;9763;48.780;9.212;2024-03-29T09:45:54;12.90;73.90
19258;DHT22;9763;48.780;9.212;2024-03-29T09:49:19;12.90;74.10
19258;DHT22;9763;48.780;9.212;2024-03-29T09:52:43;12.90;74.50
19258;DHT22;9763;48.780;9.212;2024-03-29T09:56:07;12.90;75.20
19258;DHT22;9763;48.780;9.212;2024-03-29T09:59:30;12.90;75.60
19258;DHT22;9763;48.780;9.212;2024-03-29T10:02:56;12.90;76.00
19258;DHT22;9763;48.780;9.212;2024-03-29T10:06:23;13.10;76.60
19258;DHT22;9763;48.780;9.212;2024-03-29T10:09:46;13.10;77.00
19258;DHT22;9763;48.780;9.212;2024-03-29T10:13:09;13.10;77.50
19258;DHT22;9763;48.780;9.212;2024-03-29T10:16:33;13.20;77.80
19258;DHT22;9763;48.780;9.212;2024-03-29T10:20:00;13.40;79.20
19258;DHT22;9763;48.780;9.212;2024-03-29T10:23:25;13.50;78.90
19258;DHT22;9763;48.780;9.212;2024-03-29T10:26:47;13.60;79.80
19258;DHT22;9763;48.780;9.212;2024-03-29T10:30:11;13.90;82.10
19258;DHT22;9763;48.780;9.212;2024-03-29T10:33:38;14.10;83.10
19258;DHT22;9763;48.780;9.212;2024-03-29T10:37:02;14.30;82.60
19258;DHT22;9763;48.780;9.212;2024-03-29T10:40:27;14.50;82.00
19258;DHT22;9763;48.780;9.212;2024-03-29T10:43:52;14.70;80.70
19258;DHT22;9763;48.780;9.212;2024-03-29T10:47:19;14.80;80.90
19258;DHT22;9763;48.780;9.212;2024-03-29T10:50:44;14.80;81.40
19258;DHT22;9763;48.780;9.212;2024-03-29T10:54:09;14.90;81.50
19258;DHT22;9763;48.780;9.212;2024-03-29T10:57:40;15.10;81.50
19258;DHT22;9763;48.780;9.212;2024-03-29T11:01:05;15.10;80.40
19258;DHT22;9763;48.780;9.212;2024-03-29T11:04:34;15.20;81.20
19258;DHT22;9763;48.780;9.212;2024-03-29T11:08:02;15.30;80.90
19258;DHT22;9763;48.780;9.212;2024-03-29T11:11:26;15.40;81.30
19258;DHT22;9763;48.780;9.212;2024-03-29T11:14:57;15.60;81.50
19258;DHT22;9763;48.780;9.212;2024-03-29T11:18:24;15.70;80.70
19258;DHT22;9763;48.780;9.212;2024-03-29T11:21:49;15.80;80.80
19258;DHT22;9763;48.780;9.212;2024-03-29T11:25:12;16.00;80.30
19258;DHT22;9763;48.780;9.212;2024-03-29T11:28:35;16.10;79.70
19258;DHT22;9763;48.780;9.212;2024-03-29T11:32:00;16.20;79.10
19258;DHT22;9763;48.780;9.212;2024-03-29T11:35:22;16.30;79.30
19258;DHT22;9763;48.780;9.212;2024-03-29T11:38:52;16.50;78.50
19258;DHT22;9763;48.780;9.212;2024-03-29T11:42:16;16.60;78.00
19258;DHT22;9763;48.780;9.212;2024-03-29T11:45:40;16.70;77.60
19258;DHT22;9763;48.780;9.212;2024-03-29T11:49:04;16.80;76.80
19258;DHT22;9763;48.780;9.212;2024-03-29T11:52:27;16.90;76.30
19258;DHT22;9763;48.780;9.212;2024-03-29T11:55:49;16.90;76.10
19258;DHT22;9763;48.780;9.212;2024-03-29T11:59:14;16.90;75.60
19258;DHT22;9763;48.780;9.212;2024-03-29T12:02:39;17.00;75.40
19258;DHT22;9763;48.780;9.212;2024-03-29T12:06:04;17.00;75.30
19258;DHT22;9763;48.780;9.212;2024-03-29T12:09:26;17.00;75.00
19258;DHT22;9763;48.780;9.212;2024-03-29T12:12:49;17.10;74.90
19258;DHT22;9763;48.780;9.212;2024-03-29T12:16:12;17.10;74.60
19258;DHT22;9763;48.780;9.212;2024-03-29T12:19:35;17.10;74.70
19258;DHT22;9763;48.780;9.212;2024-03-29T12:23:00;17.20;75.10
19258;DHT22;9763;48.780;9.212;2024-03-29T12:26:25;17.30;75.60
19258;DHT22;9763;48.780;9.212;2024-03-29T12:29:51;17.40;76.20
19258;DHT22;9763;48.780;9.212;2024-03-29T12:33:15;17.60;76.80
19258;DHT22;9763;48.780;9.212;2024-03-29T12:36:40;17.80;76.80
19258;DHT22;9763;48.780;9.212;2024-03-29T12:40:08;18.00;76.70
19258;DHT22;9763;48.780;9.212;2024-03-29T12:43:33;18.20;76.40
19258;DHT22;9763;48.780;9.212;2024-03-29T12:46:56;18.40;77.20
19258;DHT22;9763;48.780;9.212;2024-03-29T12:50:24;18.70;77.10
19258;DHT22;9763;48.780;9.212;2024-03-29T12:53:48;18.90;77.10
19258;DHT22;9763;48.780;9.212;2024-03-29T12:57:13;19.10;77.50
19258;DHT22;9763;48.780;9.212;2024-03-29T13:00:36;19.50;77.70
19258;DHT22;9763;48.780;9.212;2024-03-29T13:03:58;19.60;76.70
19258;DHT22;9763;48.780;9.212;2024-03-29T13:07:21;19.80;75.20
19258;DHT22;9763;48.780;9.212;2024-03-29T13:10:46;19.80;74.60
19258;DHT22;9763;48.780;9.212;2024-03-29T13:14:10;19.90;74.70
19258;DHT22;9763;48.780;9.212;2024-03-29T13:17:33;19.90;74.70
19258;DHT22;9763;48.780;9.212;2024-03-29T13:20:56;20.20;75.80
19258;DHT22;9763;48.780;9.212;2024-03-29T13:24:23;20.20;76.00
19258;DHT22;9763;48.780;9.212;2024-03-29T13:27:48;20.30;75.70
19258;DHT22;9763;48.780;9.212;2024-03-29T13:31:16;20.40;74.90
19258;DHT22;9763;48.780;9.212;2024-03-29T13:34:38;20.50;73.90
19258;DHT22;9763;48.780;9.212;2024-03-29T13:38:01;20.40;72.80
19258;DHT22;9763;48.780;9.212;2024-03-29T13:41:23;20.60;72.60
19258;DHT22;9763;48.780;9.212;2024-03-29T13:44:46;20.40;72.20
19258;DHT22;9763;48.780;9.212;2024-03-29T13:48:13;20.30;71.50
19258;DHT22;9763;48.780;9.212;2024-03-29T13:51:36;20.30;70.80
19258;DHT22;9763;48.780;9.212;2024-03-29T13:54:59;20.30;70.60
19258;DHT22;9763;48.780;9.212;2024-03-29T13:58:23;20.20;70.40
19258;DHT22;9763;48.780;9.212;2024-03-29T14:01:46;20.10;70.00
19258;DHT22;9763;48.780;9.212;2024-03-29T14:05:10;20.10;69.40
19258;DHT22;9763;48.780;9.212;2024-03-29T14:08:33;20.10;68.90
19258;DHT22;9763;48.780;9.212;2024-03-29T14:11:56;20.00;68.60
19258;DHT22;9763;48.780;9.212;2024-03-29T14:15:19;19.90;68.40
19258;DHT22;9763;48.780;9.212;2024-03-29T14:18:42;19.90;68.40
19258;DHT22;9763;48.780;9.212;2024-03-29T14:22:06;19.80;68.30
19258;DHT22;9763;48.780;9.212;2024-03-29T14:25:29;19.80;68.10
19258;DHT22;9763;48.780;9.212;2024-03-29T14:28:52;19.80;68.10
19258;DHT22;9763;48.780;9.212;2024-03-29T14:32:15;19.70;67.90
19258;DHT22;9763;48.780;9.212;2024-03-29T14:35:37;19.70;67.80
19258;DHT22;9763;48.780;9.212;2024-03-29T14:39:02;19.70;67.70
19258;DHT22;9763;48.780;9.212;2024-03-29T14:42:24;19.70;67.20
19258;DHT22;9763;48.780;9.212;2024-03-29T14:45:48;19.70;67.20
19258;DHT22;9763;48.780;9.212;2024-03-29T14:49:11;19.70;67.00
19258;DHT22;9763;48.780;9.212;2024-03-29T14:52:35;19.70;67.20
19258;DHT22;9763;48.780;9.212;2024-03-29T14:55:59;19.70;66.50
19258;DHT22;9763;48.780;9.212;2024-03-29T14:59:23;19.60;66.40
19258;DHT22;9763;48.780;9.212;2024-03-29T15:02:47;19.60;66.10
19258;DHT22;9763;48.780;9.212;2024-03-29T15:06:10;19.60;65.90
19258;DHT22;9763;48.780;9.212;2024-03-29T15:09:32;19.60;65.90
19258;DHT22;9763;48.780;9.212;2024-03-29T15:12:57;19.50;65.80
19258;DHT22;9763;48.780;9.212;2024-03-29T15:16:20;19.50;65.50
19258;DHT22;9763;48.780;9.212;2024-03-29T15:19:45;19.50;65.60
19258;DHT22;9763;48.780;9.212;2024-03-29T15:23:11;19.50;65.50
19258;DHT22;9763;48.780;9.212;2024-03-29T15:26:34;19.40;65.40
19258;DHT22;9763;48.780;9.212;2024-03-29T15:29:58;19.50;65.30
19258;DHT22;9763;48.780;9.212;2024-03-29T15:33:20;19.40;65.10
19258;DHT22;9763;48.780;9.212;2024-03-29T15:36:43;19.40;65.00
19258;DHT22;9763;48.780;9.212;2024-03-29T15:40:07;19.40;65.00
19258;DHT22;9763;48.780;9.212;2024-03-29T15:43:31;19.40;65.00
19258;DHT22;9763;48.780;9.212;2024-03-29T15:46:55;19.40;65.10
19258;DHT22;9763;48.780;9.212;2024-03-29T15:50:18;19.40;64.90
19258;DHT22;9763;48.780;9.212;2024-03-29T15:53:40;19.40;64.90
19258;DHT22;9763;48.780;9.212;2024-03-29T15:57:04;19.40;64.90
19258;DHT22;9763;48.780;9.212;2024-03-29T16:00:26;19.30;64.70
19258;DHT22;9763;48.780;9.212;2024-03-29T16:03:53;19.30;64.60
19258;DHT22;9763;48.780;9.212;2024-03-29T16:07:16;19.30;64.60
19258;DHT22;9763;48.780;9.212;2024-03-29T16:10:51;19.20;64.40
19258;DHT22;9763;48.780;9.212;2024-03-29T16:14:15;19.00;63.40
19258;DHT22;9763;48.780;9.212;2024-03-29T16:17:37;19.20;64.40
19258;DHT22;9763;48.780;9.212;2024-03-29T16:21:01;19.20;64.20
19258;DHT22;9763;48.780;9.212;2024-03-29T16:24:24;19.20;64.10
19258;DHT22;9763;48.780;9.212;2024-03-29T16:27:47;19.20;63.90
19258;DHT22;9763;48.780;9.212;2024-03-29T16:31:09;19.10;63.70
19258;DHT22;9763;48.780;9.212;2024-03-29T16:34:31;19.10;63.70
19258;DHT22;9763;48.780;9.212;2024-03-29T16:37:56;19.00;63.60
19258;DHT22;9763;48.780;9.212;2024-03-29T16:41:17;19.00;63.50
19258;DHT22;9763;48.780;9.212;2024-03-29T16:44:40;19.00;64.00
19258;DHT22;9763;48.780;9.212;2024-03-29T16:48:03;18.90;63.40
19258;DHT22;9763;48.780;9.212;2024-03-29T16:51:26;18.80;63.40
19258;DHT22;9763;48.780;9.212;2024-03-29T16:54:50;18.80;63.30
19258;DHT22;9763;48.780;9.212;2024-03-29T16:58:12;18.70;63.30
19258;DHT22;9763;48.780;9.212;2024-03-29T17:01:35;18.60;63.30
19258;DHT22;9763;48.780;9.212;2024-03-29T17:04:56;18.60;63.30
19258;DHT22;9763;48.780;9.212;2024-03-29T17:08:19;18.50;63.20
19258;DHT22;9763;48.780;9.212;2024-03-29T17:11:43;18.40;63.20
19258;DHT22;9763;48.780;9.212;2024-03-29T17:15:05;18.30;63.10
19258;DHT22;9763;48.780;9.212;2024-03-29T17:18:28;18.30;63.30
19258;DHT22;9763;48.780;9.212;2024-03-29T17:21:51;18.20;63.20
19258;DHT22;9763;48.780;9.212;2024-03-29T17:25:14;18.10;63.30
19258;DHT22;9763;48.780;9.212;2024-03-29T17:28:38;18.00;63.30
19258;DHT22;9763;48.780;9.212;2024-03-29T17:32:02;17.90;63.30
19258;DHT22;9763;48.780;9.212;2024-03-29T17:35:24;17.80;63.30
19258;DHT22;9763;48.780;9.212;2024-03-29T17:38:46;17.70;63.30
19258;DHT22;9763;48.780;9.212;2024-03-29T17:42:09;17.60;63.20
19258;DHT22;9763;48.780;9.212;2024-03-29T17:45:32;17.50;63.20
19258;DHT22;9763;48.780;9.212;2024-03-29T17:48:54;17.50;63.20
19258;DHT22;9763;48.780;9.212;2024-03-29T17:52:16;17.40;63.20
19258;DHT22;9763;48.780;9.212;2024-03-29T17:55:39;17.30;63.10
19258;DHT22;9763;48.780;9.212;2024-03-29T17:59:02;17.20;63.10
19258;DHT22;9763;48.780;9.212;2024-03-29T18:02:25;17.20;63.20
19258;DHT22;9763;48.780;9.212;2024-03-29T18:05:47;17.10;63.20
19258;DHT22;9763;48.780;9.212;2024-03-29T18:09:08;17.00;63.20
19258;DHT22;9763;48.780;9.212;2024-03-29T18:12:31;17.00;63.20
19258;DHT22;9763;48.780;9.212;2024-03-29T18:15:52;16.90;63.10
19258;DHT22;9763;48.780;9.212;2024-03-29T18:19:16;16.80;63.10
19258;DHT22;9763;48.780;9.212;2024-03-29T18:22:39;16.70;63.20
19258;DHT22;9763;48.780;9.212;2024-03-29T18:26:00;16.60;63.10
19258;DHT22;9763;48.780;9.212;2024-03-29T18:29:23;16.60;63.30
19258;DHT22;9763;48.780;9.212;2024-03-29T18:32:46;16.50;63.20
19258;DHT22;9763;48.780;9.212;2024-03-29T18:36:09;16.40;63.40
19258;DHT22;9763;48.780;9.212;2024-03-29T18:39:31;16.30;63.50
19258;DHT22;9763;48.780;9.212;2024-03-29T18:42:53;16.20;63.50
19258;DHT22;9763;48.780;9.212;2024-03-29T18:46:17;16.10;63.50
19258;DHT22;9763;48.780;9.212;2024-03-29T18:49:39;16.10;63.60
19258;DHT22;9763;48.780;9.212;2024-03-29T18:53:03;16.00;63.60
19258;DHT22;9763;48.780;9.212;2024-03-29T18:56:25;15.90;63.70
19258;DHT22;9763;48.780;9.212;2024-03-29T18:59:49;15.90;63.60
19258;DHT22;9763;48.780;9.212;2024-03-29T19:03:11;15.80;63.70
19258;DHT22;9763;48.780;9.212;2024-03-29T19:06:33;15.70;63.80
19258;DHT22;9763;48.780;9.212;2024-03-29T19:09:57;15.70;63.90
19258;DHT22;9763;48.780;9.212;2024-03-29T19:13:19;15.60;63.90
19258;DHT22;9763;48.780;9.212;2024-03-29T19:16:41;15.60;64.00
19258;DHT22;9763;48.780;9.212;2024-03-29T19:20:03;15.50;64.00
19258;DHT22;9763;48.780;9.212;2024-03-29T19:23:26;15.50;64.10
19258;DHT22;9763;48.780;9.212;2024-03-29T19:26:52;15.50;64.10
19258;DHT22;9763;48.780;9.212;2024-03-29T19:30:15;15.40;64.00
19258;DHT22;9763;48.780;9.212;2024-03-29T19:33:37;15.40;64.00
19258;DHT22;9763;48.780;9.212;2024-03-29T19:36:59;15.40;64.20
19258;DHT22;9763;48.780;9.212;2024-03-29T19:40:22;15.30;64.10
19258;DHT22;9763;48.780;9.212;2024-03-29T19:43:44;15.30;64.20
19258;DHT22;9763;48.780;9.212;2024-03-29T19:47:07;15.20;64.20
19258;DHT22;9763;48.780;9.212;2024-03-29T19:50:29;15.20;64.20
19258;DHT22;9763;48.780;9.212;2024-03-29T19:53:50;15.10;64.20
19258;DHT22;9763;48.780;9.212;2024-03-29T19:57:14;15.10;64.30
19258;DHT22;9763;48.780;9.212;2024-03-29T20:00:36;15.10;64.50
19258;DHT22;9763;48.780;9.212;2024-03-29T20:03:59;15.00;64.50
19258;DHT22;9763;48.780;9.212;2024-03-29T20:07:20;14.90;64.50
19258;DHT22;9763;48.780;9.212;2024-03-29T20:10:43;14.90;64.70
19258;DHT22;9763;48.780;9.212;2024-03-29T20:14:05;14.80;64.70
19258;DHT22;9763;48.780;9.212;2024-03-29T20:17:29;14.80;64.70
19258;DHT22;9763;48.780;9.212;2024-03-29T20:20:52;14.80;64.70
19258;DHT22;9763;48.780;9.212;2024-03-29T20:24:14;14.80;65.70
19258;DHT22;9763;48.780;9.212;2024-03-29T20:27:37;14.80;64.80
19258;DHT22;9763;48.780;9.212;2024-03-29T20:31:02;14.70;64.80
19258;DHT22;9763;48.780;9.212;2024-03-29T20:34:25;14.70;64.90
19258;DHT22;9763;48.780;9.212;2024-03-29T20:37:48;14.70;64.90
19258;DHT22;9763;48.780;9.212;2024-03-29T20:41:09;14.70;64.90
19258;DHT22;9763;48.780;9.212;2024-03-29T20:44:31;14.70;65.00
19258;DHT22;9763;48.780;9.212;2024-03-29T20:47:53;14.60;65.00
19258;DHT22;9763;48.780;9.212;2024-03-29T20:51:16;14.60;65.00
19258;DHT22;9763;48.780;9.212;2024-03-29T20:54:38;14.50;65.00
19258;DHT22;9763;48.780;9.212;2024-03-29T20:58:00;14.50;65.10
19258;DHT22;9763;48.780;9.212;2024-03-29T21:01:21;14.40;65.00
19258;DHT22;9763;48.780;9.212;2024-03-29T21:04:58;14.40;65.10
19258;DHT22;9763;48.780;9.212;2024-03-29T21:08:39;14.30;65.20
19258;DHT22;9763;48.780;9.212;2024-03-29T21:12:02;14.30;65.40
19258;DHT22;9763;48.780;9.212;2024-03-29T21:15:25;14.30;65.40
19258;DHT22;9763;48.780;9.212;2024-03-29T21:18:48;14.30;65.40
19258;DHT22;9763;48.780;9.212;2024-03-29T21:22:10;14.40;65.30
19258;DHT22;9763;48.780;9.212;2024-03-29T21:25:33;14.40;64.80
19258;DHT22;9763;48.780;9.212;2024-03-29T21:28:55;14.30;65.00
19258;DHT22;9763;48.780;9.212;2024-03-29T21:32:17;14.30;65.10
19258;DHT22;9763;48.780;9.212;2024-03-29T21:35:39;14.30;65.10
19258;DHT22;9763;48.780;9.212;2024-03-29T21:39:00;14.30;65.00
19258;DHT22;9763;48.780;9.212;2024-03-29T21:42:24;14.20;65.00
19258;DHT22;9763;48.780;9.212;2024-03-29T21:45:46;14.20;65.10